createdAt,value
2019-05-17T00:02:01.645Z,95042.00
2019-05-17T00:04:33.777Z,95041.00
2019-05-17T00:07:06.674Z,95040.00
2019-05-17T00:09:39.414Z,95033.00
2019-05-17T00:12:11.364Z,95032.00
2019-05-17T00:14:43.525Z,95034.00
2019-05-17T00:17:17.356Z,95032.00
2019-05-17T00:19:50.064Z,95022.00
2019-05-17T00:22:22.210Z,95025.00
2019-05-17T00:24:56.814Z,95013.00
2019-05-17T00:27:28.297Z,95013.00
2019-05-17T00:30:00.556Z,95012.00
2019-05-17T00:32:32.405Z,95008.00
2019-05-17T00:35:07.027Z,95008.00
2019-05-17T00:37:38.219Z,95004.00
2019-05-17T00:40:10.224Z,95005.00
2019-05-17T00:42:42.338Z,95008.00
2019-05-17T00:45:17.310Z,95003.00
2019-05-17T00:47:49.097Z,95000.00
2019-05-17T00:50:20.990Z,94999.00
2019-05-17T00:52:52.838Z,94996.00
2019-05-17T00:55:26.817Z,94991.00
2019-05-17T00:57:58.885Z,94996.00
2019-05-17T01:00:31.167Z,94993.00
2019-05-17T01:03:03.011Z,94986.00
2019-05-17T01:05:36.993Z,94984.00
2019-05-17T01:08:09.332Z,94984.00
2019-05-17T01:10:41.226Z,94985.00
2019-05-17T01:13:13.758Z,94984.00
2019-05-17T01:15:47.395Z,94987.00
2019-05-17T01:18:20.002Z,94991.00
2019-05-17T01:20:52.686Z,94990.00
2019-05-17T01:23:26.969Z,94990.00
2019-05-17T01:25:58.197Z,94985.00
2019-05-17T01:28:30.798Z,94976.00
2019-05-17T01:31:03.137Z,94970.00
2019-05-17T01:33:36.784Z,94978.00
2019-05-17T01:36:08.602Z,94973.00
2019-05-17T01:38:40.451Z,94971.00
2019-05-17T01:41:12.338Z,94964.00
2019-05-17T01:43:47.281Z,94953.00
2019-05-17T01:46:18.903Z,94961.00
2019-05-17T01:48:50.743Z,94956.00
2019-05-17T01:51:22.622Z,94961.00
2019-05-17T01:53:54.755Z,94949.00
2019-05-17T01:56:27.075Z,94946.00
2019-05-17T01:58:59.207Z,94956.00
2019-05-17T02:01:31.675Z,94946.00
2019-05-17T02:04:03.526Z,94959.00
2019-05-17T02:06:36.591Z,94945.00
2019-05-17T02:09:09.192Z,94947.00
2019-05-17T02:11:41.100Z,94949.00
2019-05-17T02:14:16.538Z,94941.00
2019-05-17T02:16:48.514Z,94936.00
2019-05-17T02:19:20.431Z,94940.00
2019-05-17T02:21:52.684Z,94937.00
2019-05-17T02:24:27.368Z,94940.00
2019-05-17T02:26:58.799Z,94930.00
2019-05-17T02:29:32.142Z,94933.00
2019-05-17T02:32:04.358Z,94932.00
2019-05-17T02:34:36.500Z,94935.00
2019-05-17T02:37:08.711Z,94938.00
2019-05-17T02:39:53.947Z,94937.00
2019-05-17T02:42:14.343Z,94936.00
2019-05-17T02:44:46.176Z,94936.00
2019-05-17T02:47:18.438Z,94940.00
2019-05-17T02:49:52.517Z,94939.00
2019-05-17T02:52:24.714Z,94939.00
2019-05-17T02:54:56.559Z,94934.00
2019-05-17T02:57:28.442Z,94935.00
2019-05-17T03:00:03.992Z,94928.00
2019-05-17T03:02:34.310Z,94930.00
2019-05-17T03:05:07.416Z,94925.00
2019-05-17T03:07:43.343Z,94922.00
2019-05-17T03:10:22.891Z,94918.00
2019-05-17T03:12:47.525Z,94925.00
2019-05-17T03:15:19.379Z,94920.00
2019-05-17T03:17:53.753Z,94912.00
2019-05-17T03:20:24.783Z,94910.00
2019-05-17T03:22:56.760Z,94913.00
2019-05-17T03:25:28.626Z,94907.00
2019-05-17T03:28:02.960Z,94903.00
2019-05-17T03:30:37.087Z,94905.00
2019-05-17T03:33:08.595Z,94915.00
2019-05-17T03:35:45.189Z,94906.00
2019-05-17T03:38:14.368Z,94915.00
2019-05-17T03:41:07.369Z,94909.00
2019-05-17T03:43:22.605Z,94904.00
2019-05-17T03:45:54.098Z,94905.00
2019-05-17T03:48:25.992Z,94905.00
2019-05-17T03:50:57.873Z,94907.00
2019-05-17T03:53:33.126Z,94912.00
2019-05-17T03:56:03.429Z,94911.00
2019-05-17T03:58:35.341Z,94902.00
2019-05-17T04:01:07.436Z,94906.00
2019-05-17T04:03:43.090Z,94906.00
2019-05-17T04:06:13.555Z,94903.00
2019-05-17T04:08:45.959Z,94904.00
2019-05-17T04:11:27.989Z,94912.00
2019-05-17T04:13:53.801Z,94907.00
2019-05-17T04:16:25.758Z,94913.00
2019-05-17T04:18:58.015Z,94912.00
2019-05-17T04:21:29.881Z,94913.00
2019-05-17T04:24:03.277Z,94914.00
2019-05-17T04:26:35.208Z,94913.00
2019-05-17T04:29:07.781Z,94920.00
2019-05-17T04:31:43.118Z,94917.00
2019-05-17T04:34:13.809Z,94917.00
2019-05-17T04:36:45.701Z,94917.00
2019-05-17T04:39:18.281Z,94925.00
2019-05-17T04:41:54.658Z,94930.00
2019-05-17T04:44:24.383Z,94924.00
2019-05-17T04:46:56.253Z,94927.00
2019-05-17T04:49:28.450Z,94931.00
2019-05-17T04:52:03.597Z,94929.00
2019-05-17T04:54:34.290Z,94932.00
2019-05-17T04:57:06.193Z,94925.00
2019-05-17T04:59:38.458Z,94916.00
2019-05-17T05:02:13.154Z,94928.00
2019-05-17T05:04:44.615Z,94921.00
2019-05-17T05:07:16.705Z,94929.00
2019-05-17T05:09:52.159Z,94934.00
2019-05-17T05:12:23.063Z,94920.00
2019-05-17T05:14:55.246Z,94921.00
2019-05-17T05:17:27.549Z,94918.00
2019-05-17T05:20:02.494Z,94925.00
2019-05-17T05:22:33.193Z,94918.00
2019-05-17T05:25:05.590Z,94927.00
2019-05-17T05:27:42.635Z,94915.00
2019-05-17T05:30:14.977Z,94912.00
2019-05-17T05:32:46.814Z,94914.00
2019-05-17T05:35:19.101Z,94904.00
2019-05-17T05:37:52.593Z,94904.00
2019-05-17T05:40:24.890Z,94903.00
2019-05-17T05:42:57.345Z,94901.00
2019-05-17T05:45:32.019Z,94891.00
2019-05-17T05:48:03.642Z,94897.00
2019-05-17T05:50:35.858Z,94897.00
2019-05-17T05:53:08.035Z,94896.00
2019-05-17T05:55:42.889Z,94887.00
2019-05-17T05:58:14.099Z,94890.00
2019-05-17T06:00:46.316Z,94885.00
2019-05-17T06:03:18.186Z,94897.00
2019-05-17T06:05:52.354Z,94897.00
2019-05-17T06:08:23.922Z,94902.00
2019-05-17T06:10:56.260Z,94888.00
2019-05-17T06:13:28.698Z,94895.00
2019-05-17T06:16:02.708Z,94885.00
2019-05-17T06:18:34.563Z,94888.00
2019-05-17T06:21:06.465Z,94880.00
2019-05-17T06:23:38.699Z,94884.00
2019-05-17T06:26:12.331Z,94876.00
2019-05-17T06:28:44.589Z,94879.00
2019-05-17T06:31:16.615Z,94884.00
2019-05-17T06:33:48.485Z,94879.00
2019-05-17T06:36:21.741Z,94878.00
2019-05-17T06:38:54.045Z,94884.00
2019-05-17T06:41:25.974Z,94871.00
2019-05-17T06:43:57.844Z,94880.00
2019-05-17T06:46:32.307Z,94878.00
2019-05-17T06:49:03.415Z,94881.00
2019-05-17T06:51:35.936Z,94881.00
2019-05-17T06:54:08.140Z,94871.00
2019-05-17T06:56:41.870Z,94869.00
2019-05-17T06:59:13.945Z,94866.00
2019-05-17T07:01:45.896Z,94865.00
2019-05-17T07:04:19.339Z,94858.00
2019-05-17T07:07:10.814Z,94856.00
2019-05-17T07:09:43.071Z,94847.00
2019-05-17T07:12:15.619Z,94846.00
2019-05-17T07:14:47.762Z,94843.00
2019-05-17T07:17:19.936Z,94844.00
2019-05-17T07:19:52.068Z,94838.00
2019-05-17T07:22:24.272Z,94845.00
2019-05-17T07:24:56.140Z,94837.00
2019-05-17T07:27:38.767Z,94829.00
2019-05-17T07:30:02.315Z,94832.00
2019-05-17T07:32:34.308Z,94830.00
2019-05-17T07:35:06.672Z,94827.00
2019-05-17T07:37:39.730Z,94829.00
2019-05-17T07:40:12.412Z,94822.00
2019-05-17T07:42:45.042Z,94823.00
2019-05-17T07:45:17.255Z,94821.00
2019-05-17T07:47:49.587Z,94825.00
2019-05-17T07:50:22.317Z,94824.00
2019-05-17T07:52:54.828Z,94823.00
2019-05-17T07:55:30.227Z,94819.00
2019-05-17T07:58:00.999Z,94823.00
2019-05-17T08:00:33.139Z,94816.00
2019-05-17T08:03:05.083Z,94816.00
2019-05-17T08:05:36.928Z,94808.00
2019-05-17T08:08:09.649Z,94809.00
2019-05-17T08:10:41.809Z,94799.00
2019-05-17T08:13:27.391Z,94807.00
2019-05-17T08:15:50.201Z,94797.00
2019-05-17T08:18:22.659Z,94794.00
2019-05-17T08:20:55.198Z,94788.00
2019-05-17T08:23:27.173Z,94789.00
2019-05-17T08:26:00.381Z,94784.00
2019-05-17T08:28:33.444Z,94783.00
2019-05-17T08:31:05.691Z,94787.00
2019-05-17T08:33:37.983Z,94784.00
2019-05-17T08:36:10.131Z,94783.00
2019-05-17T08:38:42.606Z,94782.00
2019-05-17T08:41:15.219Z,94779.00
2019-05-17T08:43:47.337Z,94773.00
2019-05-17T08:46:19.954Z,94774.00
2019-05-17T08:48:51.956Z,94766.00
2019-05-17T08:51:24.259Z,94759.00
2019-05-17T08:53:56.147Z,94754.00
2019-05-17T08:56:30.683Z,94757.00
2019-05-17T08:59:01.600Z,94762.00
2019-05-17T09:01:34.174Z,94757.00
2019-05-17T09:04:06.756Z,94756.00
2019-05-17T09:06:39.772Z,94755.00
2019-05-17T09:09:12.848Z,94763.00
2019-05-17T09:11:44.716Z,94752.00
2019-05-17T09:14:17.110Z,94753.00
2019-05-17T09:16:50.466Z,94740.00
2019-05-17T09:19:22.973Z,94750.00
2019-05-17T09:21:55.812Z,94747.00
2019-05-17T09:24:30.069Z,94750.00
2019-05-17T09:27:02.127Z,94747.00
2019-05-17T09:29:34.831Z,94760.00
2019-05-17T09:32:09.429Z,94748.00
2019-05-17T09:34:40.933Z,94744.00
2019-05-17T09:37:14.879Z,94745.00
2019-05-17T09:39:46.418Z,94739.00
2019-05-17T09:42:20.766Z,94741.00
2019-05-17T09:44:52.121Z,94736.00
2019-05-17T09:47:24.281Z,94740.00
2019-05-17T09:49:56.919Z,94751.00
2019-05-17T09:52:29.328Z,94737.00
2019-05-17T09:55:01.993Z,94738.00
2019-05-17T09:57:34.073Z,94723.00
2019-05-17T10:00:09.723Z,94730.00
2019-05-17T10:02:41.252Z,94731.00
2019-05-17T10:05:13.647Z,94737.00
2019-05-17T10:07:45.780Z,94741.00
2019-05-17T10:10:20.243Z,94729.00
2019-05-17T10:12:52.376Z,94717.00
2019-05-17T10:15:24.380Z,94717.00
2019-05-17T10:17:56.839Z,94719.00
2019-05-17T10:20:29.419Z,94721.00
2019-05-17T10:23:01.270Z,94721.00
2019-05-17T10:25:33.164Z,94718.00
2019-05-17T10:28:04.943Z,94712.00
2019-05-17T10:30:39.529Z,94710.00
2019-05-17T10:33:10.944Z,94711.00
2019-05-17T10:35:42.974Z,94715.00
2019-05-17T10:38:15.216Z,94705.00
2019-05-17T10:40:49.876Z,94709.00
2019-05-17T10:43:20.977Z,94714.00
2019-05-17T10:45:52.876Z,94712.00
2019-05-17T10:48:24.708Z,94713.00
2019-05-17T10:50:56.599Z,94711.00
2019-05-17T10:53:29.734Z,94710.00
2019-05-17T10:56:01.824Z,94699.00
2019-05-17T10:58:33.674Z,94696.00
2019-05-17T11:01:10.125Z,94698.00
2019-05-17T11:03:40.993Z,94702.00
2019-05-17T11:06:13.267Z,94702.00
2019-05-17T11:08:45.125Z,94700.00
2019-05-17T11:11:19.825Z,94699.00
2019-05-17T11:13:53.019Z,94699.00
2019-05-17T11:16:24.408Z,94692.00
2019-05-17T11:18:56.641Z,94689.00
2019-05-17T11:21:28.948Z,94700.00
2019-05-17T11:24:01.495Z,94694.00
2019-05-17T11:26:34.119Z,94691.00
2019-05-17T11:29:06.900Z,94688.00
2019-05-17T11:31:39.532Z,94691.00
2019-05-17T11:34:12.055Z,94699.00
2019-05-17T11:36:44.556Z,94689.00
2019-05-17T11:39:16.425Z,94691.00
2019-05-17T11:41:48.334Z,94690.00
2019-05-17T11:44:20.190Z,94682.00
2019-05-17T11:46:52.368Z,94683.00
2019-05-17T11:49:24.269Z,94684.00
2019-05-17T11:51:56.727Z,94689.00
2019-05-17T11:54:29.055Z,94680.00
2019-05-17T11:57:01.258Z,94684.00
2019-05-17T11:59:33.381Z,94678.00
2019-05-17T12:02:05.541Z,94681.00
2019-05-17T12:04:37.725Z,94675.00
2019-05-17T12:07:09.720Z,94676.00
2019-05-17T12:09:41.902Z,94664.00
2019-05-17T12:12:14.150Z,94669.00
2019-05-17T12:14:46.027Z,94671.00
2019-05-17T12:17:18.128Z,94677.00
2019-05-17T12:19:50.057Z,94672.00
2019-05-17T12:22:22.603Z,94673.00
2019-05-17T12:24:54.482Z,94670.00
2019-05-17T12:27:27.160Z,94671.00
2019-05-17T12:29:59.059Z,94670.00
2019-05-17T12:32:31.313Z,94662.00
2019-05-17T12:35:03.612Z,94664.00
2019-05-17T12:37:35.733Z,94664.00
2019-05-17T12:40:07.950Z,94661.00
2019-05-17T12:42:40.453Z,94657.00
2019-05-17T12:45:12.678Z,94665.00
2019-05-17T12:47:44.580Z,94663.00
2019-05-17T12:50:16.649Z,94663.00
2019-05-17T12:52:49.346Z,94657.00
2019-05-17T12:55:21.267Z,94657.00
2019-05-17T12:57:53.617Z,94658.00
2019-05-17T13:00:26.166Z,94655.00
2019-05-17T13:02:58.081Z,94658.00
2019-05-17T13:05:29.921Z,94662.00
2019-05-17T13:08:02.163Z,94654.00
2019-05-17T13:10:34.042Z,94653.00
2019-05-17T13:13:09.341Z,94648.00
2019-05-17T13:15:40.254Z,94658.00
2019-05-17T13:18:12.658Z,94663.00
2019-05-17T13:20:44.548Z,94658.00
2019-05-17T13:23:16.705Z,94658.00
2019-05-17T13:25:49.180Z,94653.00
2019-05-17T13:28:21.448Z,94650.00
2019-05-17T13:30:53.796Z,94650.00
2019-05-17T13:33:29.105Z,94647.00
2019-05-17T13:36:00.025Z,94656.00
2019-05-17T13:38:32.542Z,94648.00
2019-05-17T13:41:04.782Z,94641.00
2019-05-17T13:43:37.285Z,94641.00
2019-05-17T13:46:09.124Z,94640.00
2019-05-17T13:48:41.039Z,94635.00
2019-05-17T13:51:13.299Z,94640.00
2019-05-17T13:53:45.294Z,94632.00
2019-05-17T13:56:17.276Z,94631.00
2019-05-17T13:58:49.811Z,94623.00
2019-05-17T14:01:21.714Z,94627.00
2019-05-17T14:03:53.651Z,94636.00
2019-05-17T14:06:25.492Z,94633.00
2019-05-17T14:08:57.504Z,94636.00
2019-05-17T14:11:29.430Z,94620.00
2019-05-17T14:14:01.581Z,94629.00
2019-05-17T14:16:34.692Z,94627.00
2019-05-17T14:19:07.131Z,94627.00
2019-05-17T14:21:38.973Z,94632.00
2019-05-17T14:24:11.262Z,94632.00
2019-05-17T14:26:43.839Z,94629.00
2019-05-17T14:29:15.902Z,94635.00
2019-05-17T14:31:47.773Z,94637.00
2019-05-17T14:34:19.982Z,94635.00
2019-05-17T14:36:51.866Z,94633.00
2019-05-17T14:39:23.776Z,94634.00
2019-05-17T14:41:55.937Z,94634.00
2019-05-17T14:44:27.897Z,94634.00
2019-05-17T14:47:00.088Z,94631.00
2019-05-17T14:49:32.578Z,94633.00
2019-05-17T14:52:04.885Z,94631.00
2019-05-17T14:54:36.992Z,94633.00
2019-05-17T14:57:09.485Z,94626.00
2019-05-17T14:59:41.629Z,94621.00
2019-05-17T15:02:13.564Z,94618.00
2019-05-17T15:04:46.166Z,94612.00
2019-05-17T15:07:18.053Z,94615.00
2019-05-17T15:09:49.939Z,94610.00
2019-05-17T15:12:28.395Z,94612.00
2019-05-17T15:14:55.889Z,94604.00
2019-05-17T15:17:27.778Z,94600.00
2019-05-17T15:19:59.778Z,94608.00
2019-05-17T15:22:31.642Z,94604.00
2019-05-17T15:25:03.518Z,94597.00
2019-05-17T15:27:35.387Z,94593.00
2019-05-17T15:30:07.914Z,94596.00
2019-05-17T15:32:40.170Z,94597.00
2019-05-17T15:35:12.466Z,94597.00
2019-05-17T15:37:44.311Z,94605.00
2019-05-17T15:40:16.999Z,94591.00
2019-05-17T15:42:49.049Z,94591.00
2019-05-17T15:45:21.375Z,94591.00
2019-05-17T15:47:53.974Z,94598.00
2019-05-17T15:50:25.874Z,94585.00
2019-05-17T15:52:58.364Z,94584.00
2019-05-17T15:55:30.705Z,94589.00
2019-05-17T15:58:02.890Z,94585.00
2019-05-17T16:00:35.366Z,94589.00
2019-05-17T16:03:08.003Z,94578.00
2019-05-17T16:05:40.029Z,94586.00
2019-05-17T16:08:11.879Z,94578.00
2019-05-17T16:10:44.215Z,94588.00
2019-05-17T16:13:16.482Z,94586.00
2019-05-17T16:15:48.607Z,94585.00
2019-05-17T16:18:21.230Z,94587.00
2019-05-17T16:20:53.751Z,94586.00
2019-05-17T16:23:25.641Z,94577.00
2019-05-17T16:25:57.973Z,94581.00
2019-05-17T16:28:29.842Z,94586.00
2019-05-17T16:31:01.762Z,94590.00
2019-05-17T16:33:33.656Z,94589.00
2019-05-17T16:36:05.873Z,94588.00
2019-05-17T16:38:38.262Z,94583.00
2019-05-17T16:41:10.340Z,94579.00
2019-05-17T16:43:42.591Z,94579.00
2019-05-17T16:46:14.529Z,94583.00
2019-05-17T16:48:46.397Z,94577.00
2019-05-17T16:51:18.321Z,94585.00
2019-05-17T16:53:50.894Z,94577.00
2019-05-17T16:56:23.167Z,94582.00
2019-05-17T16:58:55.875Z,94583.00
2019-05-17T17:01:28.135Z,94576.00
2019-05-17T17:04:00.573Z,94579.00
2019-05-17T17:06:32.476Z,94587.00
2019-05-17T17:09:05.864Z,94579.00
2019-05-17T17:11:38.102Z,94581.00
2019-05-17T17:14:09.990Z,94586.00
2019-05-17T17:16:42.232Z,94577.00
2019-05-17T17:19:14.504Z,94583.00
2019-05-17T17:21:46.902Z,94584.00
2019-05-17T17:24:20.548Z,94587.00
2019-05-17T17:26:57.284Z,94577.00
2019-05-17T17:29:29.708Z,94592.00
2019-05-17T17:32:01.594Z,94598.00
2019-05-17T17:34:34.442Z,94592.00
2019-05-17T17:37:07.017Z,94585.00
2019-05-17T17:39:38.991Z,94587.00
2019-05-17T17:42:11.266Z,94589.00
2019-05-17T17:44:43.426Z,94588.00
2019-05-17T17:47:15.979Z,94593.00
2019-05-17T17:49:48.080Z,94598.00
2019-05-17T17:52:20.803Z,94597.00
2019-05-17T17:54:52.811Z,94603.00
2019-05-17T17:57:25.343Z,94599.00
2019-05-17T17:59:57.560Z,94609.00
2019-05-17T18:02:32.837Z,94612.00
2019-05-17T18:05:05.596Z,94599.00
2019-05-17T18:07:40.239Z,94605.00
2019-05-17T18:10:35.744Z,94602.00
2019-05-17T18:13:08.292Z,94612.00
2019-05-17T18:15:50.379Z,94616.00
2019-05-17T18:18:24.171Z,94614.00
2019-05-17T18:20:57.088Z,94617.00
2019-05-17T18:23:30.335Z,94630.00
2019-05-17T18:26:02.361Z,94629.00
2019-05-17T18:28:34.835Z,94636.00
2019-05-17T18:31:07.650Z,94641.00
2019-05-17T18:33:39.682Z,94640.00
2019-05-17T18:36:11.822Z,94647.00
2019-05-17T18:38:45.600Z,94647.00
2019-05-17T18:41:21.139Z,94638.00
2019-05-17T18:43:53.519Z,94647.00
2019-05-17T18:46:26.213Z,94653.00
2019-05-17T18:48:58.270Z,94646.00
2019-05-17T18:51:30.965Z,94650.00
2019-05-17T18:54:03.543Z,94655.00
2019-05-17T18:56:35.707Z,94652.00
2019-05-17T18:59:15.813Z,94658.00
2019-05-17T19:01:51.508Z,94657.00
2019-05-17T19:04:34.423Z,94665.00
2019-05-17T19:07:10.827Z,94668.00
2019-05-17T19:09:47.349Z,94666.00
2019-05-17T19:12:35.465Z,94667.00
2019-05-17T19:15:08.518Z,94668.00
2019-05-17T19:17:40.766Z,94674.00
2019-05-17T19:20:12.904Z,94679.00
2019-05-17T19:22:45.095Z,94675.00
2019-05-17T19:25:19.055Z,94688.00
2019-05-17T19:27:51.559Z,94691.00
2019-05-17T19:30:23.452Z,94688.00
2019-05-17T19:32:55.626Z,94684.00
2019-05-17T19:35:27.983Z,94695.00
2019-05-17T19:38:00.190Z,94693.00
2019-05-17T19:40:32.719Z,94695.00
2019-05-17T19:43:04.921Z,94697.00
2019-05-17T19:45:37.149Z,94693.00
2019-05-17T19:48:09.027Z,94697.00
2019-05-17T19:50:40.938Z,94702.00
2019-05-17T19:53:14.113Z,94692.00
2019-05-17T19:55:46.569Z,94694.00
2019-05-17T19:58:18.828Z,94690.00
2019-05-17T20:00:50.999Z,94689.00
2019-05-17T20:03:23.115Z,94689.00
2019-05-17T20:05:55.051Z,94690.00
2019-05-17T20:08:27.480Z,94689.00
2019-05-17T20:10:59.239Z,94685.00
2019-05-17T20:13:31.098Z,94690.00
2019-05-17T20:16:02.995Z,94689.00
2019-05-17T20:18:34.852Z,94695.00
2019-05-17T20:21:07.052Z,94697.00
2019-05-17T20:23:39.611Z,94703.00
2019-05-17T20:26:12.364Z,94722.00
2019-05-17T20:28:44.281Z,94714.00
2019-05-17T20:31:16.903Z,94708.00
2019-05-17T20:33:49.774Z,94712.00
2019-05-17T20:36:21.956Z,94709.00
2019-05-17T20:38:54.491Z,94713.00
2019-05-17T20:41:26.649Z,94711.00
2019-05-17T20:44:07.162Z,94707.00
2019-05-17T20:46:39.312Z,94709.00
2019-05-17T20:49:11.196Z,94710.00
2019-05-17T20:51:43.525Z,94714.00
2019-05-17T20:54:18.013Z,94715.00
2019-05-17T20:56:50.684Z,94707.00
2019-05-17T20:59:22.884Z,94705.00
2019-05-17T21:01:55.159Z,94711.00
2019-05-17T21:04:27.040Z,94701.00
2019-05-17T21:06:59.612Z,94702.00
2019-05-17T21:09:32.191Z,94705.00
2019-05-17T21:12:04.464Z,94699.00
2019-05-17T21:14:37.054Z,94702.00
2019-05-17T21:17:09.616Z,94706.00
2019-05-17T21:19:41.879Z,94709.00
2019-05-17T21:22:14.664Z,94714.00
2019-05-17T21:24:47.086Z,94708.00
2019-05-17T21:27:19.994Z,94712.00
2019-05-17T21:29:51.849Z,94715.00
2019-05-17T21:32:24.055Z,94704.00
2019-05-17T21:34:56.204Z,94709.00
2019-05-17T21:37:28.212Z,94701.00
2019-05-17T21:40:00.370Z,94695.00
2019-05-17T21:42:32.538Z,94696.00
2019-05-17T21:45:04.896Z,94705.00
2019-05-17T21:47:37.680Z,94710.00
2019-05-17T21:50:10.431Z,94694.00
2019-05-17T21:52:42.320Z,94703.00
2019-05-17T21:55:14.541Z,94706.00
2019-05-17T21:57:46.859Z,94706.00
2019-05-17T22:00:57.033Z,94713.00
2019-05-17T22:03:29.003Z,94696.00
2019-05-17T22:06:01.544Z,94705.00
2019-05-17T22:08:34.539Z,94705.00
2019-05-17T22:11:06.829Z,94704.00
2019-05-17T22:13:39.484Z,94699.00
2019-05-17T22:16:19.728Z,94705.00
2019-05-17T22:18:45.203Z,94703.00
2019-05-17T22:21:17.766Z,94700.00
2019-05-17T22:23:50.302Z,94706.00
2019-05-17T22:26:22.540Z,94706.00
2019-05-17T22:28:56.224Z,94710.00
2019-05-17T22:31:28.462Z,94696.00
2019-05-17T22:34:00.810Z,94703.00
2019-05-17T22:36:33.181Z,94701.00
2019-05-17T22:39:06.294Z,94700.00
2019-05-17T22:41:38.157Z,94704.00
2019-05-17T22:44:10.046Z,94692.00
2019-05-17T22:46:42.039Z,94696.00
2019-05-17T22:49:13.941Z,94696.00
2019-05-17T22:51:46.747Z,94691.00
2019-05-17T22:54:19.685Z,94691.00
2019-05-17T22:56:51.854Z,94684.00
2019-05-17T22:59:23.862Z,94684.00
2019-05-17T23:01:56.076Z,94680.00
2019-05-17T23:04:28.289Z,94682.00
2019-05-17T23:07:00.535Z,94682.00
2019-05-17T23:09:32.790Z,94685.00
2019-05-17T23:12:04.719Z,94682.00
2019-05-17T23:14:36.890Z,94685.00
2019-05-17T23:17:08.767Z,94685.00
2019-05-17T23:19:40.656Z,94683.00
2019-05-17T23:22:12.781Z,94680.00
2019-05-17T23:24:45.430Z,94683.00
2019-05-17T23:27:17.442Z,94674.00
2019-05-17T23:29:50.154Z,94675.00
2019-05-17T23:32:22.012Z,94669.00
2019-05-17T23:34:54.458Z,94677.00
2019-05-17T23:37:26.371Z,94675.00
2019-05-17T23:39:58.351Z,94663.00
2019-05-17T23:42:30.246Z,94667.00
2019-05-17T23:45:02.164Z,94665.00
2019-05-17T23:47:34.354Z,94670.00
2019-05-17T23:50:07.278Z,94669.00
2019-05-17T23:52:39.140Z,94668.00
2019-05-17T23:55:11.591Z,94670.00
2019-05-17T23:57:44.178Z,94671.00
